Time;durP1;ratioP1;P1;durP2;ratioP2;P2;SDS_P1;SDS_P2;PMS_P1;PMS_P2;Temp;Humidity;BMP_temperature;BMP_pressure;BME280_temperature;BME280_humidity;BME280_pressure;Samples;Min_cycle;Max_cycle;Signal;HPM_P1;HPM_P2
2021/09/11 00:00:16;;;;;;;27.15;18.35;;;17.40;64.80;;;;;;5137880;27;20020;-36
2021/09/11 00:02:46;;;;;;;21.50;16.17;;;17.40;64.90;;;;;;5137245;27;20407;-38
2021/09/11 00:05:12;;;;;;;23.53;17.03;;;17.40;65.00;;;;;;5137464;27;20419;-35
2021/09/11 00:07:38;;;;;;;31.55;18.27;;;17.40;65.00;;;;;;5137323;27;20263;-36
2021/09/11 00:10:06;;;;;;;23.05;16.20;;;17.40;65.10;;;;;;5137443;27;20164;-35
2021/09/11 00:12:32;;;;;;;27.58;17.63;;;17.40;65.20;;;;;;5137569;27;20071;-36
2021/09/11 00:14:58;;;;;;;23.92;16.85;;;17.30;65.20;;;;;;5137618;27;20127;-36
2021/09/11 00:17:24;;;;;;;34.28;19.38;;;17.30;65.40;;;;;;5137414;27;20117;-36
2021/09/11 00:19:50;;;;;;;25.90;17.63;;;17.30;65.50;;;;;;5137287;27;20108;-36
2021/09/11 00:22:15;;;;;;;27.63;18.65;;;17.30;65.60;;;;;;5137228;27;20031;-36
2021/09/11 00:24:41;;;;;;;26.48;17.58;;;17.30;65.80;;;;;;5137377;27;20039;-35
2021/09/11 00:27:07;;;;;;;23.52;16.90;;;17.30;65.50;;;;;;5137304;27;20042;-36
2021/09/11 00:29:33;;;;;;;25.63;16.58;;;17.20;65.50;;;;;;5137232;27;20091;-36
2021/09/11 00:31:59;;;;;;;27.17;16.15;;;17.20;65.60;;;;;;5137206;27;20031;-39
2021/09/11 00:34:24;;;;;;;25.52;16.95;;;17.20;65.70;;;;;;5137187;27;20023;-35
2021/09/11 00:36:50;;;;;;;24.20;16.52;;;17.20;65.90;;;;;;5136901;27;20031;-36
2021/09/11 00:39:16;;;;;;;23.98;16.63;;;17.20;66.00;;;;;;5136922;27;20054;-36
2021/09/11 00:41:42;;;;;;;31.10;18.65;;;17.20;66.10;;;;;;5136765;27;20406;-37
2021/09/11 00:44:07;;;;;;;25.15;17.27;;;17.20;66.10;;;;;;5137171;27;20023;-38
2021/09/11 00:46:33;;;;;;;26.40;19.02;;;17.20;66.10;;;;;;5136840;27;20740;-36
2021/09/11 00:48:59;;;;;;;26.92;17.60;;;17.10;66.10;;;;;;5136859;27;20075;-35
2021/09/11 00:51:25;;;;;;;29.27;17.75;;;17.10;66.10;;;;;;5136937;27;20047;-35
2021/09/11 00:53:51;;;;;;;30.42;18.67;;;17.10;66.10;;;;;;5136529;27;20047;-35
2021/09/11 00:56:16;;;;;;;28.55;18.10;;;17.10;66.20;;;;;;5136581;27;20046;-36
2021/09/11 00:58:43;;;;;;;25.70;18.35;;;17.10;66.20;;;;;;5136969;27;20030;-35
2021/09/11 01:01:08;;;;;;;27.88;19.75;;;17.10;66.50;;;;;;5136754;27;20088;-36
2021/09/11 01:03:34;;;;;;;28.48;18.73;;;17.10;66.70;;;;;;5137015;28;20102;-36
2021/09/11 01:06:00;;;;;;;31.00;21.33;;;17.10;66.70;;;;;;5136853;28;20019;-35
2021/09/11 01:08:27;;;;;;;27.77;19.50;;;17.10;66.60;;;;;;5136957;28;20405;-34
2021/09/11 01:10:53;;;;;;;25.77;18.63;;;17.00;66.50;;;;;;5136398;28;20027;-34
2021/09/11 01:13:19;;;;;;;29.50;20.65;;;17.10;66.70;;;;;;5137066;28;20035;-34
2021/09/11 01:15:45;;;;;;;27.85;19.98;;;17.10;66.90;;;;;;5139311;27;20098;-35
2021/09/11 01:18:13;;;;;;;27.73;19.88;;;17.10;66.90;;;;;;5141296;27;20031;-34
2021/09/11 01:20:39;;;;;;;30.23;20.17;;;17.00;66.80;;;;;;5140867;27;20098;-36
2021/09/11 01:23:05;;;;;;;31.65;20.33;;;17.00;67.10;;;;;;5140591;27;20066;-35
2021/09/11 01:25:31;;;;;;;30.10;21.05;;;17.00;67.10;;;;;;5140348;27;20027;-34
2021/09/11 01:27:57;;;;;;;35.08;22.80;;;17.00;67.30;;;;;;5141112;27;20057;-34
2021/09/11 01:30:23;;;;;;;31.67;20.90;;;17.00;67.30;;;;;;5140507;27;20019;-35
2021/09/11 01:32:51;;;;;;;29.67;21.88;;;16.90;67.30;;;;;;5140736;27;20482;-34
2021/09/11 01:35:17;;;;;;;27.60;19.98;;;16.90;67.30;;;;;;5140730;27;20041;-35
2021/09/11 01:37:43;;;;;;;31.73;20.55;;;16.90;67.40;;;;;;5140680;27;20027;-36
2021/09/11 01:40:09;;;;;;;33.63;21.65;;;16.90;67.50;;;;;;5140263;27;20038;-38
2021/09/11 01:42:36;;;;;;;29.23;21.05;;;16.90;67.50;;;;;;5140486;27;20034;-34
2021/09/11 01:45:10;;;;;;;27.13;18.92;;;16.80;67.50;;;;;;5140460;27;20153;-36
2021/09/11 01:47:37;;;;;;;27.98;19.75;;;16.80;67.50;;;;;;5140426;27;20027;-34
2021/09/11 01:50:04;;;;;;;35.45;21.75;;;16.80;67.70;;;;;;5122282;27;20054;-34
2021/09/11 01:52:30;;;;;;;30.63;21.13;;;16.80;67.60;;;;;;5121910;27;20038;-34
2021/09/11 01:54:55;;;;;;;32.65;20.98;;;16.80;67.50;;;;;;5139924;27;20047;-35
2021/09/11 01:57:21;;;;;;;30.85;19.92;;;16.80;67.60;;;;;;5140201;27;20023;-35
2021/09/11 01:59:47;;;;;;;33.22;20.75;;;16.70;67.50;;;;;;5140325;27;20030;-37
2021/09/11 02:02:13;;;;;;;31.45;21.05;;;16.70;67.50;;;;;;5121608;27;20031;-34
2021/09/11 02:04:39;;;;;;;27.42;19.67;;;16.70;67.50;;;;;;5139916;27;20106;-35
2021/09/11 02:07:05;;;;;;;30.15;20.85;;;16.70;67.50;;;;;;5139994;27;20074;-34
2021/09/11 02:09:32;;;;;;;32.05;20.83;;;16.70;67.60;;;;;;5140018;27;20031;-34
2021/09/11 02:11:59;;;;;;;30.33;21.98;;;16.70;67.70;;;;;;5139874;27;20042;-36
2021/09/11 02:14:25;;;;;;;30.00;19.27;;;16.60;67.90;;;;;;5139980;27;20330;-34
2021/09/11 02:16:51;;;;;;;32.20;20.77;;;16.60;67.90;;;;;;5139664;27;20023;-34
2021/09/11 02:19:16;;;;;;;31.50;21.65;;;16.60;68.00;;;;;;5139909;27;20035;-34
2021/09/11 02:21:42;;;;;;;32.65;21.15;;;16.60;67.90;;;;;;5139435;27;20027;-34
2021/09/11 02:24:08;;;;;;;33.42;20.77;;;16.60;67.80;;;;;;5139837;27;20026;-35
2021/09/11 02:26:34;;;;;;;31.85;20.60;;;16.60;67.80;;;;;;5138085;27;20039;-35
2021/09/11 02:29:02;;;;;;;33.13;21.88;;;16.50;68.00;;;;;;5139316;27;20023;-34
2021/09/11 02:31:27;;;;;;;29.30;21.80;;;16.50;68.00;;;;;;5139250;27;20102;-35
2021/09/11 02:33:53;;;;;;;29.60;19.95;;;16.50;67.90;;;;;;5121020;27;20107;-34
2021/09/11 02:36:19;;;;;;;33.08;19.73;;;16.50;68.00;;;;;;5139252;27;20027;-36
2021/09/11 02:38:45;;;;;;;33.22;20.52;;;16.50;68.00;;;;;;5139389;27;20019;-37
2021/09/11 02:41:11;;;;;;;33.28;20.48;;;16.50;68.20;;;;;;5139062;27;20027;-35
2021/09/11 02:43:36;;;;;;;30.05;20.10;;;16.40;68.20;;;;;;5139446;27;20035;-34
2021/09/11 02:46:02;;;;;;;37.45;21.88;;;16.40;68.10;;;;;;5139243;27;20117;-35
2021/09/11 02:48:28;;;;;;;35.92;21.52;;;16.40;68.10;;;;;;5139173;27;20091;-36
2021/09/11 02:50:54;;;;;;;35.10;22.67;;;16.40;68.20;;;;;;5138713;27;20072;-35
2021/09/11 02:53:19;;;;;;;39.17;22.35;;;16.40;68.30;;;;;;5139424;27;20139;-34
2021/09/11 02:55:46;;;;;;;28.20;19.20;;;16.40;68.30;;;;;;5139074;27;20472;-36
2021/09/11 02:58:11;;;;;;;29.30;19.02;;;16.40;68.30;;;;;;5139171;27;20070;-34
2021/09/11 03:00:37;;;;;;;31.10;21.45;;;16.30;68.30;;;;;;5138336;27;20385;-36
2021/09/11 03:03:03;;;;;;;34.25;23.05;;;16.40;68.30;;;;;;5139023;27;20372;-35
2021/09/11 03:05:29;;;;;;;30.98;20.65;;;16.30;68.30;;;;;;5138660;27;20027;-36
2021/09/11 03:07:55;;;;;;;29.48;21.25;;;16.30;68.40;;;;;;5139121;27;20029;-34
2021/09/11 03:10:20;;;;;;;31.58;22.25;;;16.30;68.50;;;;;;5138469;27;20034;-34
2021/09/11 03:12:46;;;;;;;39.10;21.60;;;16.30;68.50;;;;;;5138898;27;20071;-35
2021/09/11 03:15:12;;;;;;;33.17;23.13;;;16.30;68.60;;;;;;5138913;27;20057;-36
2021/09/11 03:17:38;;;;;;;33.28;24.13;;;16.30;68.70;;;;;;5138480;27;20303;-34
2021/09/11 03:20:05;;;;;;;30.67;20.83;;;16.30;68.70;;;;;;5138432;27;20034;-34
2021/09/11 03:22:31;;;;;;;33.78;21.35;;;16.30;68.60;;;;;;5138323;27;20027;-36
2021/09/11 03:24:56;;;;;;;29.25;20.17;;;16.30;68.60;;;;;;5138337;27;20035;-35
2021/09/11 03:27:22;;;;;;;28.17;20.15;;;16.20;68.70;;;;;;5120044;27;20031;-35
2021/09/11 03:29:48;;;;;;;33.92;23.70;;;16.30;68.90;;;;;;5138131;27;20042;-37
2021/09/11 03:32:13;;;;;;;40.03;22.48;;;16.30;68.80;;;;;;5138271;27;20310;-35
2021/09/11 03:34:39;;;;;;;33.63;23.30;;;16.20;68.70;;;;;;5138398;27;20027;-35
2021/09/11 03:37:04;;;;;;;30.27;21.38;;;16.20;68.80;;;;;;5137952;27;20031;-36
2021/09/11 03:39:30;;;;;;;32.95;21.80;;;16.20;68.70;;;;;;5137790;27;20031;-36
2021/09/11 03:41:56;;;;;;;37.42;24.17;;;16.20;68.70;;;;;;5137944;27;20179;-37
2021/09/11 03:44:22;;;;;;;37.80;24.38;;;16.20;69.00;;;;;;5138201;27;20110;-36
2021/09/11 03:46:47;;;;;;;35.25;23.40;;;16.20;69.00;;;;;;5137885;27;20081;-35
2021/09/11 03:49:13;;;;;;;39.15;23.33;;;16.20;69.00;;;;;;5137782;27;20327;-35
2021/09/11 03:51:39;;;;;;;37.15;23.17;;;16.20;69.10;;;;;;5137534;27;20027;-35
2021/09/11 03:54:05;;;;;;;42.08;24.63;;;16.20;68.90;;;;;;5137479;27;20066;-37
2021/09/11 03:56:30;;;;;;;42.63;22.52;;;16.20;69.00;;;;;;5137656;27;20517;-36
2021/09/11 03:58:56;;;;;;;42.45;23.25;;;16.10;69.10;;;;;;5137787;27;20031;-35
2021/09/11 04:01:21;;;;;;;43.88;25.92;;;16.10;69.20;;;;;;5137786;27;20307;-35
2021/09/11 04:03:48;;;;;;;41.22;25.55;;;16.20;69.20;;;;;;5137703;27;20026;-35
2021/09/11 04:06:13;;;;;;;47.63;29.00;;;16.10;69.10;;;;;;5137425;27;20030;-36
2021/09/11 04:08:39;;;;;;;48.63;27.25;;;16.20;69.30;;;;;;5137125;27;20031;-36
2021/09/11 04:11:05;;;;;;;40.25;25.75;;;16.20;69.40;;;;;;5137279;27;20023;-37
2021/09/11 04:13:32;;;;;;;38.13;22.52;;;16.10;69.60;;;;;;5137403;27;20035;-38
2021/09/11 04:15:58;;;;;;;38.78;24.10;;;16.20;69.90;;;;;;5137069;27;20029;-37
2021/09/11 04:18:24;;;;;;;39.50;24.73;;;16.20;70.10;;;;;;5137708;27;20027;-37
2021/09/11 04:20:49;;;;;;;34.53;25.42;;;16.20;70.20;;;;;;5136818;27;20051;-37
2021/09/11 04:23:15;;;;;;;35.67;24.10;;;16.30;70.40;;;;;;5137481;27;20054;-35
2021/09/11 04:25:41;;;;;;;33.40;23.42;;;16.30;70.40;;;;;;5136683;27;20051;-37
2021/09/11 04:28:07;;;;;;;33.70;23.60;;;16.30;70.50;;;;;;5137257;27;20039;-36
2021/09/11 04:30:32;;;;;;;34.03;22.88;;;16.40;70.60;;;;;;5136608;27;20038;-37
2021/09/11 04:32:58;;;;;;;37.72;24.20;;;16.50;70.60;;;;;;5136835;27;20034;-38
2021/09/11 04:35:24;;;;;;;29.63;20.95;;;16.50;70.60;;;;;;5136469;27;20031;-38
2021/09/11 04:37:49;;;;;;;31.92;22.70;;;16.60;70.50;;;;;;5136641;27;20038;-35
2021/09/11 04:40:15;;;;;;;34.08;23.27;;;16.60;70.50;;;;;;5136503;27;20023;-35
2021/09/11 04:42:41;;;;;;;37.50;25.80;;;16.70;70.50;;;;;;5136471;27;20023;-35
2021/09/11 04:45:07;;;;;;;38.85;25.23;;;16.80;70.40;;;;;;5136065;27;20039;-37
2021/09/11 04:47:33;;;;;;;36.65;26.30;;;16.80;70.30;;;;;;5136485;27;20039;-37
2021/09/11 04:49:58;;;;;;;32.55;22.33;;;16.90;70.40;;;;;;5135514;27;20077;-37
2021/09/11 04:52:24;;;;;;;31.25;22.30;;;16.90;70.20;;;;;;5136683;27;20031;-35
2021/09/11 04:54:50;;;;;;;35.97;23.63;;;17.00;70.10;;;;;;5136090;27;20170;-37
2021/09/11 04:57:15;;;;;;;33.92;23.55;;;17.10;69.80;;;;;;5136419;27;20057;-35
2021/09/11 04:59:41;;;;;;;34.05;23.95;;;17.10;69.80;;;;;;5136227;27;20110;-36
2021/09/11 05:02:07;;;;;;;34.85;23.45;;;17.20;69.70;;;;;;5136397;27;20023;-35
2021/09/11 05:04:32;;;;;;;33.95;23.98;;;17.20;69.60;;;;;;5136189;28;20031;-38
2021/09/11 05:06:59;;;;;;;34.47;22.67;;;17.30;69.60;;;;;;5136339;28;20031;-37
2021/09/11 05:09:25;;;;;;;31.27;22.52;;;17.40;69.60;;;;;;5136499;28;20024;-37
2021/09/11 05:11:51;;;;;;;37.38;24.25;;;17.40;69.50;;;;;;5136397;28;20373;-36
2021/09/11 05:14:17;;;;;;;31.65;23.52;;;17.50;69.40;;;;;;5136287;28;20442;-36
2021/09/11 05:16:42;;;;;;;30.63;22.38;;;17.50;69.50;;;;;;5135860;28;20383;-37
2021/09/11 05:19:08;;;;;;;32.65;24.85;;;17.60;69.60;;;;;;5136236;28;20024;-38
2021/09/11 05:21:34;;;;;;;38.30;24.27;;;17.60;69.70;;;;;;5136004;28;20031;-36
2021/09/11 05:23:59;;;;;;;32.00;23.85;;;17.70;69.60;;;;;;5136225;28;20019;-37
2021/09/11 05:26:25;;;;;;;35.35;23.50;;;17.80;69.50;;;;;;5136092;28;20047;-37
2021/09/11 05:28:51;;;;;;;36.42;23.83;;;17.80;69.30;;;;;;5136039;28;20020;-36
2021/09/11 05:31:17;;;;;;;37.20;24.70;;;17.90;69.50;;;;;;5136111;28;20030;-35
2021/09/11 05:33:42;;;;;;;32.50;23.95;;;17.90;69.20;;;;;;5117755;28;20026;-35
2021/09/11 05:36:08;;;;;;;35.35;23.88;;;18.00;69.10;;;;;;5135908;28;20023;-35
2021/09/11 05:38:34;;;;;;;38.55;24.38;;;18.00;68.90;;;;;;5136219;28;20399;-35
2021/09/11 05:41:00;;;;;;;33.58;24.23;;;18.10;68.70;;;;;;5136048;28;20022;-35
2021/09/11 05:43:26;;;;;;;38.08;24.30;;;18.20;68.70;;;;;;5136350;28;20023;-35
2021/09/11 05:45:52;;;;;;;35.78;24.63;;;18.20;68.60;;;;;;5135960;28;20185;-35
2021/09/11 05:48:18;;;;;;;30.95;22.70;;;18.30;68.80;;;;;;5136490;28;20311;-35
2021/09/11 05:50:44;;;;;;;35.30;24.75;;;18.30;68.80;;;;;;5135522;28;20021;-35
2021/09/11 05:53:09;;;;;;;39.65;24.90;;;18.30;68.90;;;;;;5135762;28;20124;-34
2021/09/11 05:55:35;;;;;;;29.25;21.98;;;18.40;69.00;;;;;;5135456;28;20066;-35
2021/09/11 05:58:01;;;;;;;33.38;24.50;;;18.50;69.10;;;;;;5136355;28;20031;-37
2021/09/11 06:00:27;;;;;;;28.73;21.88;;;18.50;69.10;;;;;;5136236;27;20024;-37
2021/09/11 06:02:53;;;;;;;30.27;23.83;;;18.60;68.90;;;;;;5139913;27;20034;-34
2021/09/11 06:05:18;;;;;;;31.85;21.92;;;18.60;69.10;;;;;;5139706;27;20027;-36
2021/09/11 06:07:44;;;;;;;30.85;21.88;;;18.70;68.90;;;;;;5139601;27;20031;-35
2021/09/11 06:10:11;;;;;;;32.38;22.77;;;18.80;68.70;;;;;;5139801;27;20054;-34
2021/09/11 06:12:37;;;;;;;30.77;22.27;;;18.80;68.70;;;;;;5139843;27;20379;-35
2021/09/11 06:15:05;;;;;;;31.80;21.25;;;18.90;68.50;;;;;;5139258;27;20339;-37
2021/09/11 06:17:30;;;;;;;31.58;23.10;;;18.90;68.40;;;;;;5139190;27;20050;-35
2021/09/11 06:19:56;;;;;;;28.00;21.52;;;19.00;68.50;;;;;;5139672;27;20027;-35
2021/09/11 06:22:21;;;;;;;33.58;22.90;;;19.00;68.60;;;;;;5139363;27;20468;-35
2021/09/11 06:24:47;;;;;;;28.75;20.73;;;19.10;68.70;;;;;;5139654;27;20027;-35
2021/09/11 06:27:13;;;;;;;27.75;20.73;;;19.10;68.80;;;;;;5139178;27;20023;-35
2021/09/11 06:29:39;;;;;;;25.05;20.77;;;19.20;68.70;;;;;;5139026;27;20023;-37
2021/09/11 06:32:05;;;;;;;29.73;20.73;;;19.30;68.60;;;;;;5139333;27;20031;-36
2021/09/11 06:34:31;;;;;;;28.20;20.50;;;19.30;68.40;;;;;;5138783;27;20083;-37
2021/09/11 06:36:57;;;;;;;24.00;19.15;;;19.40;68.30;;;;;;5138814;27;20122;-37
2021/09/11 06:39:22;;;;;;;31.80;20.13;;;19.50;67.90;;;;;;5120680;27;20110;-35
2021/09/11 06:41:48;;;;;;;26.50;21.00;;;19.50;67.50;;;;;;5138714;27;20126;-37
2021/09/11 06:44:13;;;;;;;25.10;18.38;;;19.60;67.50;;;;;;5139169;27;20408;-37
2021/09/11 06:46:39;;;;;;;24.35;18.23;;;19.70;67.50;;;;;;5138430;27;20408;-37
2021/09/11 06:49:05;;;;;;;28.20;20.63;;;19.70;66.70;;;;;;5138636;27;20312;-34
2021/09/11 06:51:32;;;;;;;21.15;16.35;;;19.80;66.40;;;;;;5138495;27;20019;-35
2021/09/11 06:53:57;;;;;;;25.60;17.60;;;19.90;66.20;;;;;;5138184;27;20095;-35
2021/09/11 06:56:23;;;;;;;21.70;16.75;;;20.00;66.10;;;;;;5138693;27;20027;-35
2021/09/11 06:58:49;;;;;;;23.50;15.63;;;20.00;65.20;;;;;;5138691;27;20015;-34
2021/09/11 07:01:14;;;;;;;22.15;15.35;;;20.10;65.20;;;;;;5138573;27;20407;-35
2021/09/11 07:03:40;;;;;;;24.90;16.13;;;20.20;64.90;;;;;;5138490;27;20407;-36
2021/09/11 07:06:06;;;;;;;23.13;17.60;;;20.20;64.60;;;;;;5138245;27;20395;-35
2021/09/11 07:08:33;;;;;;;21.27;15.80;;;20.30;64.30;;;;;;5138755;27;20038;-34
2021/09/11 07:10:59;;;;;;;26.58;16.77;;;20.40;64.40;;;;;;5138164;27;20422;-34
2021/09/11 07:13:25;;;;;;;24.92;16.40;;;20.50;64.40;;;;;;5138183;27;20334;-36
2021/09/11 07:15:51;;;;;;;21.08;15.75;;;20.60;64.30;;;;;;5138466;27;20027;-37
2021/09/11 07:18:17;;;;;;;19.48;14.35;;;20.60;64.00;;;;;;5138678;27;20349;-36
2021/09/11 07:20:42;;;;;;;20.85;16.95;;;20.70;64.20;;;;;;5138094;27;20112;-35
2021/09/11 07:23:08;;;;;;;23.77;18.83;;;20.80;64.30;;;;;;5138069;27;20058;-37
2021/09/11 07:25:34;;;;;;;22.45;15.45;;;20.90;64.40;;;;;;5137721;27;20080;-35
2021/09/11 07:28:00;;;;;;;24.75;15.48;;;21.00;64.10;;;;;;5138282;27;20028;-36
2021/09/11 07:30:25;;;;;;;18.73;14.85;;;21.00;64.10;;;;;;5137519;27;20027;-35
2021/09/11 07:32:51;;;;;;;19.38;15.65;;;21.10;63.70;;;;;;5137664;27;20311;-35
2021/09/11 07:35:17;;;;;;;20.80;15.48;;;21.20;63.80;;;;;;5137710;27;20031;-35
2021/09/11 07:37:43;;;;;;;21.48;15.13;;;21.30;63.70;;;;;;5138014;27;20023;-36
2021/09/11 07:40:09;;;;;;;18.65;14.88;;;21.40;63.30;;;;;;5138009;27;20476;-36
2021/09/11 07:42:35;;;;;;;20.05;14.73;;;21.50;63.10;;;;;;5137981;27;20023;-37
2021/09/11 07:45:01;;;;;;;18.60;14.00;;;21.60;63.30;;;;;;5137571;27;20038;-35
2021/09/11 07:47:27;;;;;;;17.88;14.85;;;21.60;62.80;;;;;;5132800;27;20039;-35
2021/09/11 07:49:52;;;;;;;19.95;14.48;;;21.70;62.70;;;;;;5137251;27;20030;-36
2021/09/11 07:52:18;;;;;;;19.13;13.90;;;21.80;62.70;;;;;;5137183;27;20032;-37
2021/09/11 07:54:44;;;;;;;23.00;16.60;;;21.90;62.10;;;;;;5136934;27;20035;-37
2021/09/11 07:57:09;;;;;;;15.93;12.88;;;21.90;62.00;;;;;;5136701;27;20035;-37
2021/09/11 07:59:35;;;;;;;15.27;12.90;;;22.00;61.50;;;;;;5136938;27;20019;-35
2021/09/11 08:02:02;;;;;;;20.85;14.00;;;22.10;61.10;;;;;;5136949;27;20118;-35
2021/09/11 08:04:28;;;;;;;26.92;14.15;;;22.10;61.30;;;;;;5137421;27;20031;-37
2021/09/11 08:06:55;;;;;;;15.85;11.73;;;22.20;61.00;;;;;;5136491;27;20038;-35
2021/09/11 08:09:21;;;;;;;17.90;14.68;;;22.20;60.60;;;;;;5137327;27;20038;-36
2021/09/11 08:11:46;;;;;;;15.45;12.15;;;22.30;60.10;;;;;;5136802;27;20047;-35
2021/09/11 08:14:12;;;;;;;13.75;11.15;;;22.40;59.70;;;;;;5136820;27;20031;-35
2021/09/11 08:16:38;;;;;;;15.82;12.05;;;22.40;59.30;;;;;;5136425;27;20292;-35
2021/09/11 08:19:03;;;;;;;23.40;14.80;;;22.40;59.40;;;;;;5136201;27;20052;-37
2021/09/11 08:21:29;;;;;;;15.68;10.10;;;22.50;59.20;;;;;;5136550;27;20023;-35
2021/09/11 08:23:55;;;;;;;28.77;18.83;;;22.60;58.20;;;;;;5136131;27;20105;-38
2021/09/11 08:26:21;;;;;;;17.52;11.65;;;22.70;57.80;;;;;;5136563;27;20023;-36
2021/09/11 08:28:48;;;;;;;14.23;11.23;;;22.70;57.50;;;;;;5118453;27;20031;-36
2021/09/11 08:31:14;;;;;;;13.25;9.60;;;22.80;57.50;;;;;;5136624;27;20030;-36
2021/09/11 08:33:42;;;;;;;15.95;10.38;;;22.80;57.30;;;;;;5137052;27;20382;-35
2021/09/11 08:36:08;;;;;;;14.15;10.75;;;22.90;57.30;;;;;;5136794;27;20031;-37
2021/09/11 08:38:34;;;;;;;14.55;10.80;;;22.90;57.20;;;;;;5136996;27;20039;-35
2021/09/11 08:41:04;;;;;;;14.65;9.90;;;23.00;56.80;;;;;;5136499;27;20046;-35
2021/09/11 08:43:30;;;;;;;20.30;13.15;;;23.00;56.20;;;;;;5136647;27;20159;-36
2021/09/11 08:45:55;;;;;;;14.85;11.25;;;23.10;55.40;;;;;;5135883;27;20035;-36
2021/09/11 08:48:21;;;;;;;14.88;10.48;;;23.20;55.20;;;;;;5137308;27;20304;-36
2021/09/11 08:50:47;;;;;;;14.88;10.13;;;23.20;55.10;;;;;;5136623;27;20035;-37
2021/09/11 08:53:13;;;;;;;17.67;11.65;;;23.30;55.20;;;;;;5137128;27;20059;-36
2021/09/11 08:55:39;;;;;;;16.90;10.85;;;23.40;55.50;;;;;;5135917;27;20047;-37
2021/09/11 08:58:08;;;;;;;17.00;11.10;;;23.50;55.60;;;;;;5136706;27;20031;-35
2021/09/11 09:00:46;;;;;;;15.15;10.23;;;23.50;55.70;;;;;;5136250;27;20422;-37
2021/09/11 09:03:31;;;;;;;21.65;11.82;;;23.60;55.30;;;;;;5136209;27;20035;-37
2021/09/11 09:06:17;;;;;;;14.80;10.98;;;23.70;55.60;;;;;;5118443;28;20414;-36
2021/09/11 09:08:44;;;;;;;16.05;9.63;;;23.70;55.50;;;;;;5136299;28;20040;-36
2021/09/11 09:11:22;;;;;;;15.63;9.80;;;23.80;55.10;;;;;;5136658;28;20057;-36
2021/09/11 09:13:56;;;;;;;24.15;14.10;;;23.90;54.70;;;;;;5136713;28;20079;-35
2021/09/11 09:16:22;;;;;;;18.45;10.70;;;23.90;55.00;;;;;;5136409;28;20352;-37
2021/09/11 09:18:49;;;;;;;14.73;10.93;;;24.00;54.60;;;;;;5136304;28;20023;-37
2021/09/11 09:21:16;;;;;;;18.13;10.45;;;24.10;54.40;;;;;;5135823;28;20019;-36
2021/09/11 09:23:47;;;;;;;13.80;10.80;;;24.20;53.90;;;;;;5135954;28;20101;-36
2021/09/11 09:26:12;;;;;;;21.00;11.48;;;24.30;53.70;;;;;;5136042;28;20031;-37
2021/09/11 09:28:38;;;;;;;19.45;13.25;;;24.30;53.10;;;;;;5136237;28;20039;-36
2021/09/11 09:31:05;;;;;;;15.13;10.82;;;24.40;53.10;;;;;;5136127;28;20091;-36
2021/09/11 09:33:38;;;;;;;17.67;10.48;;;24.40;52.40;;;;;;5136523;28;20027;-38
2021/09/11 09:36:03;;;;;;;16.10;10.68;;;24.50;52.40;;;;;;5137332;27;20031;-37
2021/09/11 09:38:29;;;;;;;15.43;10.88;;;24.60;51.80;;;;;;5140473;27;20033;-37
2021/09/11 09:40:55;;;;;;;15.40;10.73;;;24.70;51.30;;;;;;5140274;27;20027;-35
2021/09/11 09:43:31;;;;;;;18.80;11.00;;;24.70;50.50;;;;;;5140625;27;20095;-36
2021/09/11 09:46:07;;;;;;;11.77;9.85;;;24.80;49.80;;;;;;5140124;27;20068;-37
2021/09/11 09:48:35;;;;;;;13.52;9.07;;;24.80;49.00;;;;;;5140483;27;20410;-36
2021/09/11 09:51:07;;;;;;;15.20;10.48;;;24.90;49.80;;;;;;5140444;27;20105;-38
2021/09/11 09:53:33;;;;;;;19.00;11.93;;;25.00;48.90;;;;;;5140017;27;20035;-35
2021/09/11 09:55:59;;;;;;;18.85;10.43;;;25.00;48.50;;;;;;5140026;27;20102;-36
2021/09/11 09:58:25;;;;;;;18.15;10.00;;;25.10;48.30;;;;;;5140538;27;20031;-36
2021/09/11 10:00:51;;;;;;;16.08;9.98;;;25.10;48.30;;;;;;5139599;27;20080;-36
2021/09/11 10:03:16;;;;;;;13.88;10.55;;;25.20;48.30;;;;;;5140217;27;20106;-35
2021/09/11 10:05:46;;;;;;;13.43;9.30;;;25.30;48.70;;;;;;5139449;27;20030;-36
2021/09/11 10:08:14;;;;;;;21.00;12.75;;;25.40;48.20;;;;;;5139972;27;20032;-36
2021/09/11 10:10:43;;;;;;;16.17;11.50;;;25.50;48.10;;;;;;5139305;27;20411;-36
2021/09/11 10:13:22;;;;;;;14.10;11.10;;;25.50;47.90;;;;;;5140009;27;20063;-36
2021/09/11 10:15:56;;;;;;;14.60;9.25;;;25.60;47.60;;;;;;5138928;27;20052;-35
2021/09/11 10:18:32;;;;;;;11.27;8.10;;;25.70;46.90;;;;;;5139648;27;20296;-37
2021/09/11 10:21:15;;;;;;;13.98;9.60;;;25.70;44.90;;;;;;5139007;27;20047;-37
2021/09/11 10:23:43;;;;;;;15.43;9.50;;;25.80;44.70;;;;;;5138700;27;20034;-37
2021/09/11 10:26:47;;;;;;;14.43;8.98;;;25.90;45.00;;;;;;5138923;27;20411;-36
2021/09/11 10:29:34;;;;;;;11.98;8.90;;;25.90;44.40;;;;;;5139412;27;20049;-36
2021/09/11 10:32:23;;;;;;;12.30;9.02;;;26.00;44.00;;;;;;5120601;27;20031;-36
2021/09/11 10:34:51;;;;;;;12.30;8.93;;;26.10;44.00;;;;;;5139121;27;20122;-37
2021/09/11 10:37:32;;;;;;;13.27;9.43;;;26.10;43.90;;;;;;5138984;27;20481;-37
2021/09/11 10:40:17;;;;;;;14.18;9.15;;;26.20;44.00;;;;;;5139273;27;20110;-37
2021/09/11 10:43:04;;;;;;;15.00;8.93;;;26.30;43.60;;;;;;5138747;27;20027;-36
2021/09/11 10:45:45;;;;;;;14.30;11.23;;;26.40;43.00;;;;;;5138299;27;20062;-35
2021/09/11 10:48:50;;;;;;;12.23;9.98;;;26.50;43.40;;;;;;5138084;27;20035;-36
2021/09/11 10:51:30;;;;;;;16.40;10.00;;;26.60;43.30;;;;;;5138824;27;20039;-36
2021/09/11 10:54:12;;;;;;;19.92;12.27;;;26.60;42.50;;;;;;5138393;27;20102;-36
2021/09/11 10:56:49;;;;;;;13.93;9.30;;;26.70;42.90;;;;;;5138456;27;20046;-36
2021/09/11 10:59:16;;;;;;;18.52;11.20;;;26.80;41.10;;;;;;5138757;27;20043;-37
2021/09/11 11:02:16;;;;;;;14.32;11.43;;;26.90;41.50;;;;;;5138581;27;20034;-38
2021/09/11 11:04:53;;;;;;;12.93;8.80;;;27.10;41.70;;;;;;5138431;27;20035;-37
2021/09/11 11:07:20;;;;;;;11.63;9.07;;;27.20;41.30;;;;;;5138394;27;20019;-35
2021/09/11 11:10:06;;;;;;;16.75;9.95;;;27.30;41.30;;;;;;5119951;27;20462;-38
2021/09/11 11:12:41;;;;;;;25.05;16.20;;;27.40;40.60;;;;;;5138094;27;20024;-35
2021/09/11 11:15:12;;;;;;;14.25;9.68;;;27.50;41.70;;;;;;5137668;27;20042;-36
2021/09/11 11:17:44;;;;;;;15.00;11.45;;;27.50;41.10;;;;;;5137992;27;20101;-35
2021/09/11 11:20:11;;;;;;;11.80;9.70;;;27.60;40.40;;;;;;5137969;27;20027;-36
2021/09/11 11:22:39;;;;;;;13.98;10.50;;;27.70;40.70;;;;;;5137834;27;20023;-37
2021/09/11 11:25:27;;;;;;;15.70;10.88;;;27.80;40.80;;;;;;5137796;27;20088;-37
2021/09/11 11:27:53;;;;;;;16.70;10.30;;;27.90;40.40;;;;;;5137905;27;20102;-36
2021/09/11 11:30:21;;;;;;;16.83;9.20;;;28.00;40.50;;;;;;5138195;27;20119;-35
2021/09/11 11:32:47;;;;;;;14.07;9.70;;;28.10;40.20;;;;;;5138270;27;20042;-35
2021/09/11 11:35:14;;;;;;;18.05;10.38;;;28.20;40.20;;;;;;5138114;27;20323;-38
2021/09/11 11:37:40;;;;;;;14.57;9.57;;;28.20;39.90;;;;;;5138057;27;20299;-36
2021/09/11 11:40:16;;;;;;;15.07;9.13;;;28.40;39.80;;;;;;5137849;27;20253;-35
2021/09/11 11:42:43;;;;;;;11.60;8.77;;;28.50;39.30;;;;;;5137720;27;20019;-37
2021/09/11 11:45:11;;;;;;;15.25;9.55;;;28.50;39.20;;;;;;5137488;27;20465;-38
2021/09/11 11:47:58;;;;;;;16.17;9.27;;;28.70;39.00;;;;;;5137548;27;20098;-36
2021/09/11 11:50:32;;;;;;;14.77;9.70;;;28.90;39.10;;;;;;5137343;27;20055;-37
2021/09/11 11:53:14;;;;;;;21.52;10.15;;;29.00;39.20;;;;;;5137805;27;20025;-36
2021/09/11 11:55:50;;;;;;;18.73;10.75;;;29.20;40.00;;;;;;5137154;27;20134;-37
2021/09/11 11:58:20;;;;;;;13.15;9.63;;;29.30;39.80;;;;;;5137727;27;20023;-37
2021/09/11 12:00:50;;;;;;;12.80;9.00;;;29.50;39.00;;;;;;5137328;27;20392;-36
2021/09/11 12:03:40;;;;;;;12.68;8.38;;;29.60;38.60;;;;;;5137750;27;20027;-37
2021/09/11 12:06:08;;;;;;;13.15;9.48;;;29.70;38.40;;;;;;5137343;27;20092;-36
2021/09/11 12:08:40;;;;;;;11.98;9.55;;;29.90;38.20;;;;;;5137513;27;20019;-43
2021/09/11 12:11:24;;;;;;;14.05;9.63;;;30.00;37.90;;;;;;5137494;27;20034;-37
2021/09/11 12:13:54;;;;;;;20.58;9.73;;;30.20;37.70;;;;;;5137356;27;20031;-36
2021/09/11 12:16:21;;;;;;;11.80;8.57;;;30.30;37.80;;;;;;5137053;27;20031;-35
2021/09/11 12:18:47;;;;;;;13.38;9.02;;;30.50;37.50;;;;;;5136973;27;20083;-35
2021/09/11 12:21:16;;;;;;;12.77;9.73;;;30.60;37.10;;;;;;5136959;27;20027;-35
2021/09/11 12:23:50;;;;;;;12.82;9.40;;;30.80;37.40;;;;;;5137026;27;20038;-36
2021/09/11 12:26:16;;;;;;;12.38;9.13;;;30.90;37.10;;;;;;5136715;27;20027;-37
2021/09/11 12:28:49;;;;;;;11.60;9.35;;;31.00;37.00;;;;;;5136789;27;20035;-37
2021/09/11 12:31:21;;;;;;;12.02;9.45;;;31.20;36.60;;;;;;5136699;27;20023;-35